Time;durP1;ratioP1;P1;durP2;ratioP2;P2;SDS_P1;SDS_P2;PMS_P1;PMS_P2;Temp;Humidity;BMP_temperature;BMP_pressure;BME280_temperature;BME280_humidity;BME280_pressure;Samples;Min_cycle;Max_cycle;Signal;HPM_P1;HPM_P2
2023/08/12 00:00:40;;;;;;;4.22;1.85;;;;;;;19.50;97.88;101759.28;5035986;28;20060;-74
2023/08/12 00:03:06;;;;;;;4.38;1.77;;;;;;;19.50;97.59;101750.44;5036662;28;20156;-74
2023/08/12 00:05:31;;;;;;;2.72;1.80;;;;;;;19.48;97.93;101747.03;5035776;28;20352;-74
2023/08/12 00:07:56;;;;;;;3.80;2.20;;;;;;;19.48;98.03;101734.63;5036512;28;20041;-74
2023/08/12 00:10:22;;;;;;;4.47;1.35;;;;;;;19.49;97.83;101732.81;5017915;28;20041;-74
2023/08/12 00:12:47;;;;;;;3.25;1.63;;;;;;;19.48;97.89;101739.06;5036262;28;20033;-74
2023/08/12 00:15:13;;;;;;;6.68;1.73;;;;;;;19.48;97.78;101731.09;5036618;28;20248;-74
2023/08/12 00:17:41;;;;;;;3.50;1.77;;;;;;;19.48;98.02;101731.97;5036017;28;20104;-74
2023/08/12 00:20:08;;;;;;;4.05;1.83;;;;;;;19.47;97.77;101732.91;5036280;28;20394;-74
2023/08/12 00:22:34;;;;;;;2.67;1.45;;;;;;;19.47;97.83;101732.91;5035626;28;20036;-74
2023/08/12 00:24:59;;;;;;;3.30;1.83;;;;;;;19.47;97.94;101729.41;5036240;28;20025;-74
2023/08/12 00:27:25;;;;;;;5.05;1.70;;;;;;;19.46;97.83;101728.53;5035427;28;20029;-74
2023/08/12 00:29:50;;;;;;;2.58;1.80;;;;;;;19.45;98.09;101729.50;5036285;28;20033;-74
2023/08/12 00:32:15;;;;;;;3.97;1.77;;;;;;;19.45;98.12;101720.69;5035969;28;20037;-74
2023/08/12 00:34:41;;;;;;;3.95;1.95;;;;;;;19.44;98.24;101714.50;5035661;28;20033;-74
2023/08/12 00:37:06;;;;;;;3.38;2.08;;;;;;;19.44;98.10;101713.66;5035804;28;20029;-74
2023/08/12 00:39:31;;;;;;;2.00;1.70;;;;;;;19.44;98.31;101711.00;5035242;28;20037;-74
2023/08/12 00:41:57;;;;;;;2.55;1.95;;;;;;;19.42;98.43;101707.59;5035906;28;20044;-74
2023/08/12 00:44:22;;;;;;;3.25;1.73;;;;;;;19.42;98.42;101705.78;5034960;28;20332;-74
2023/08/12 00:46:48;;;;;;;3.17;1.75;;;;;;;19.41;98.52;101706.75;5035885;28;20220;-74
2023/08/12 00:49:15;;;;;;;2.10;1.80;;;;;;;19.41;98.52;101696.13;5035972;28;20045;-74
2023/08/12 00:51:42;;;;;;;3.25;1.80;;;;;;;19.41;98.58;101696.13;5035400;28;20033;-74
2023/08/12 00:54:13;;;;;;;5.32;1.75;;;;;;;19.41;98.50;101692.59;5035475;28;20091;-74
2023/08/12 00:56:39;;;;;;;2.22;1.77;;;;;;;19.40;98.81;101689.09;5035003;28;20024;-74
2023/08/12 00:59:06;;;;;;;3.63;2.03;;;;;;;19.40;98.88;101699.72;5035430;28;20041;-74
2023/08/12 01:01:32;;;;;;;2.80;1.90;;;;;;;19.40;98.76;101696.22;5035184;28;20041;-74
2023/08/12 01:03:58;;;;;;;2.10;1.90;;;;;;;19.39;98.79;101692.69;5035833;28;20521;-74
2023/08/12 01:06:23;;;;;;;3.35;2.20;;;;;;;19.40;99.17;101690.91;5034153;28;20300;-74
2023/08/12 01:08:49;;;;;;;4.53;2.13;;;;;;;19.37;98.85;101684.84;5035127;28;20032;-74
2023/08/12 01:11:26;;;;;;;3.22;2.35;;;;;;;19.38;98.97;101688.34;5035516;28;20096;-74
2023/08/12 01:14:10;;;;;;;2.15;1.95;;;;;;;19.36;98.79;101685.78;5034950;28;20025;-74
2023/08/12 01:16:41;;;;;;;2.42;2.20;;;;;;;19.37;99.01;101682.19;5034867;28;20311;-74
2023/08/12 01:19:10;;;;;;;3.47;2.05;;;;;;;19.36;99.00;101680.47;5035206;28;20034;-74
2023/08/12 01:21:43;;;;;;;3.50;2.03;;;;;;;19.35;99.26;101676.09;5034430;28;20033;-74
2023/08/12 01:24:09;;;;;;;4.30;2.63;;;;;;;19.34;99.13;101669.09;5034991;28;20029;-73
2023/08/12 01:26:34;;;;;;;5.30;2.42;;;;;;;19.35;99.23;101667.28;5034347;28;20257;-74
2023/08/12 01:28:59;;;;;;;3.58;1.90;;;;;;;19.34;99.46;101669.09;5034953;28;20037;-74
2023/08/12 01:31:38;;;;;;;2.42;2.22;;;;;;;19.34;99.50;101657.63;5034321;28;20029;-74
2023/08/12 01:34:06;;;;;;;;;;;;;;;19.33;99.65;101663.88;5035443;28;20037;-74
2023/08/12 01:36:34;;;;;;;;;;;;;;;19.32;99.71;101660.38;5034410;28;20103;-74
2023/08/12 01:39:00;;;;;;;3.55;2.05;;;;;;;19.30;99.87;101656.97;5034784;28;19917;-74
2023/08/12 01:41:26;;;;;;;2.47;2.28;;;;;;;19.30;99.77;101651.66;5034038;28;20052;-74
2023/08/12 01:43:52;;;;;;;3.78;2.58;;;;;;;19.30;99.75;101648.13;5034462;28;20320;-74
2023/08/12 01:46:17;;;;;;;4.63;2.95;;;;;;;19.29;99.92;101649.94;5034025;28;20570;-73
2023/08/12 01:48:43;;;;;;;3.80;2.83;;;;;;;19.29;100.00;101649.94;5034731;28;20044;-74
2023/08/12 01:51:08;;;;;;;5.10;3.10;;;;;;;19.29;100.00;101654.41;5034434;28;20060;-74
2023/08/12 01:53:34;;;;;;;6.03;3.10;;;;;;;19.29;100.00;101654.41;5033856;28;20340;-74
2023/08/12 01:55:59;;;;;;;6.30;2.92;;;;;;;19.30;100.00;101648.13;5033813;28;20260;-74
2023/08/12 01:58:26;;;;;;;3.10;2.85;;;;;;;19.29;100.00;101641.13;5033740;28;20038;-74
2023/08/12 02:00:52;;;;;;;4.03;3.03;;;;;;;19.29;100.00;101646.44;5034504;28;20033;-74
2023/08/12 02:03:17;;;;;;;7.32;3.38;;;;;;;19.29;100.00;101643.78;5033866;28;20044;-74
2023/08/12 02:05:43;;;;;;;3.28;2.97;;;;;;;19.29;100.00;101639.31;5034456;28;20036;-74
2023/08/12 02:08:08;;;;;;;6.10;2.97;;;;;;;19.30;100.00;101632.19;5034291;28;20170;-74
2023/08/12 02:10:34;;;;;;;3.25;2.95;;;;;;;19.29;100.00;101622.53;5033690;28;20340;-74
2023/08/12 02:12:59;;;;;;;6.18;2.90;;;;;;;19.29;100.00;101625.19;5034368;28;20375;-74
2023/08/12 02:15:25;;;;;;;3.33;3.03;;;;;;;19.28;100.00;101627.00;5034111;28;20047;-74
2023/08/12 02:17:50;;;;;;;4.60;3.28;;;;;;;19.29;100.00;101622.53;5034187;28;20360;-74
2023/08/12 02:20:15;;;;;;;4.82;2.90;;;;;;;19.28;100.00;101621.69;5034265;28;20379;-74
2023/08/12 02:22:41;;;;;;;3.58;3.13;;;;;;;19.29;100.00;101614.56;5033986;28;20059;-74
2023/08/12 02:25:07;;;;;;;3.33;2.95;;;;;;;19.28;100.00;101616.38;5016333;28;20346;-73
2023/08/12 02:27:32;;;;;;;3.00;2.78;;;;;;;19.28;100.00;101626.13;5033405;28;20045;-74
2023/08/12 02:29:57;;;;;;;3.55;2.92;;;;;;;19.28;100.00;101615.50;5034309;28;20033;-74
2023/08/12 02:32:23;;;;;;;3.83;2.90;;;;;;;19.28;100.00;101612.84;5033438;28;20029;-74
2023/08/12 02:34:48;;;;;;;3.50;3.20;;;;;;;19.27;100.00;101617.31;5032412;28;20133;-73
2023/08/12 02:37:13;;;;;;;4.03;3.35;;;;;;;19.28;100.00;101615.50;5014308;28;20389;-74
2023/08/12 02:39:39;;;;;;;3.65;3.00;;;;;;;19.28;100.00;101613.72;5015241;28;20433;-74
2023/08/12 02:42:05;;;;;;;4.07;3.33;;;;;;;19.26;100.00;101612.94;5034023;28;20037;-74
2023/08/12 02:44:30;;;;;;;4.05;3.53;;;;;;;19.26;100.00;101607.66;5033146;28;20301;-74
2023/08/12 02:46:55;;;;;;;5.32;3.67;;;;;;;19.27;100.00;101598.75;5033962;28;20411;-74
2023/08/12 02:49:21;;;;;;;3.63;3.33;;;;;;;19.28;100.00;101588.97;5033512;28;20244;-74
2023/08/12 02:51:46;;;;;;;5.03;3.70;;;;;;;19.27;100.00;101589.94;5033765;28;20029;-74
2023/08/12 02:54:11;;;;;;;4.07;3.42;;;;;;;19.28;100.00;101597.81;5033592;28;20033;-74
2023/08/12 02:56:37;;;;;;;4.25;3.90;;;;;;;19.26;100.00;101597.03;5033289;28;20127;-74
2023/08/12 02:59:02;;;;;;;5.45;3.83;;;;;;;19.28;100.00;101589.84;5034164;28;20037;-76
2023/08/12 03:01:28;;;;;;;4.65;4.18;;;;;;;19.28;100.00;101589.84;5033199;28;20040;-75
2023/08/12 03:03:53;;;;;;;4.30;3.90;;;;;;;19.28;100.00;101589.84;5034048;28;20029;-75
2023/08/12 03:06:18;;;;;;;5.18;3.88;;;;;;;19.28;100.00;101584.53;5033944;28;20227;-75
2023/08/12 03:08:44;;;;;;;4.50;4.10;;;;;;;19.27;100.00;101572.19;5037569;28;20267;-75
2023/08/12 03:11:09;;;;;;;6.75;4.25;;;;;;;19.28;100.00;101573.91;5037317;28;20328;-75
2023/08/12 03:13:35;;;;;;;7.88;4.40;;;;;;;19.27;100.00;101563.38;5036762;28;20031;-75
2023/08/12 03:16:00;;;;;;;4.90;4.50;;;;;;;19.27;100.00;101566.88;5037414;28;20035;-75
2023/08/12 03:18:26;;;;;;;6.00;5.15;;;;;;;19.27;100.00;101561.56;5037102;28;20063;-75
2023/08/12 03:20:51;;;;;;;4.72;4.32;;;;;;;19.27;100.00;101555.41;5037274;28;20104;-75
2023/08/12 03:23:16;;;;;;;7.00;4.65;;;;;;;19.28;100.00;101557.09;5037199;28;20060;-75
2023/08/12 03:25:42;;;;;;;6.60;4.78;;;;;;;19.27;100.00;101553.59;5037491;28;20235;-75
2023/08/12 03:28:07;;;;;;;4.97;4.38;;;;;;;19.27;100.00;101556.25;5037042;28;20105;-75
2023/08/12 03:30:33;;;;;;;5.78;4.95;;;;;;;19.28;100.00;101557.09;5018971;28;20033;-75
2023/08/12 03:32:58;;;;;;;5.10;4.80;;;;;;;19.27;100.00;101558.06;5037126;28;20037;-75
2023/08/12 03:35:24;;;;;;;8.15;5.38;;;;;;;19.27;100.00;101564.22;5036407;28;20041;-75
2023/08/12 03:37:51;;;;;;;6.13;4.85;;;;;;;19.27;100.00;101564.22;5037036;28;20262;-75
2023/08/12 03:40:16;;;;;;;7.78;5.15;;;;;;;19.26;100.00;101556.34;5036657;28;20063;-75
2023/08/12 03:42:41;;;;;;;5.40;5.00;;;;;;;19.26;100.00;101551.03;5036521;28;20029;-75
2023/08/12 03:45:07;;;;;;;5.78;5.25;;;;;;;19.25;100.00;101552.00;5037046;28;20064;-75
2023/08/12 03:47:33;;;;;;;8.45;5.80;;;;;;;19.25;100.00;101549.34;5036336;28;20044;-75
2023/08/12 03:49:58;;;;;;;6.20;5.63;;;;;;;19.25;100.00;101538.72;5037440;28;20358;-75
2023/08/12 03:52:23;;;;;;;7.22;6.53;;;;;;;19.24;100.00;101542.31;5036219;28;20232;-75
2023/08/12 03:54:49;;;;;;;6.40;5.75;;;;;;;19.24;100.00;101531.69;5036847;28;20045;-75
2023/08/12 03:57:14;;;;;;;9.13;5.35;;;;;;;19.24;100.00;101534.34;5036938;28;20167;-75
2023/08/12 03:59:40;;;;;;;8.32;5.60;;;;;;;19.23;100.00;101525.56;5036204;28;20045;-75
2023/08/12 04:02:05;;;;;;;6.60;5.40;;;;;;;19.23;100.00;101525.56;5036780;28;20039;-75
2023/08/12 04:04:31;;;;;;;5.85;5.20;;;;;;;19.23;100.00;101514.94;5036414;28;20048;-75
2023/08/12 04:06:56;;;;;;;7.20;5.68;;;;;;;19.23;100.00;101517.59;5036655;28;20046;-75
2023/08/12 04:09:22;;;;;;;6.03;5.53;;;;;;;19.23;100.00;101501.66;5035862;28;20021;-75
2023/08/12 04:11:47;;;;;;;7.50;5.40;;;;;;;19.23;100.00;101499.00;5036908;28;20056;-75
2023/08/12 04:14:13;;;;;;;6.43;5.57;;;;;;;19.22;100.00;101497.28;5036123;28;20037;-75
2023/08/12 04:16:39;;;;;;;6.32;5.50;;;;;;;19.23;100.00;101490.16;5035796;28;20041;-75
2023/08/12 04:19:04;;;;;;;6.38;5.78;;;;;;;19.22;100.00;101497.28;5035364;28;20356;-75
2023/08/12 04:21:30;;;;;;;6.20;5.53;;;;;;;19.22;100.00;101483.16;5035903;28;20044;-75
2023/08/12 04:23:55;;;;;;;6.40;5.80;;;;;;;19.22;100.00;101491.13;5036398;28;20106;-75
2023/08/12 04:26:21;;;;;;;6.13;5.63;;;;;;;19.21;100.00;101487.63;5035694;28;20041;-75
2023/08/12 04:28:46;;;;;;;6.15;5.55;;;;;;;19.21;100.00;101487.63;5036245;28;20047;-75
2023/08/12 04:31:12;;;;;;;7.47;5.90;;;;;;;19.22;100.00;101491.13;5036055;28;20034;-75
2023/08/12 04:33:37;;;;;;;6.78;6.10;;;;;;;19.22;100.00;101483.16;5035518;28;20340;-75
2023/08/12 04:36:03;;;;;;;11.60;6.30;;;;;;;19.21;100.00;101482.31;5035605;28;20223;-75
2023/08/12 04:38:28;;;;;;;7.75;5.93;;;;;;;19.22;100.00;101486.66;5035670;28;20101;-75
2023/08/12 04:40:54;;;;;;;11.18;7.30;;;;;;;19.22;100.00;101477.84;5036061;28;20041;-75
2023/08/12 04:43:20;;;;;;;6.60;6.00;;;;;;;19.21;100.00;101479.66;5035304;28;20203;-75
2023/08/12 04:45:46;;;;;;;8.25;6.25;;;;;;;19.22;100.00;101480.50;5036035;28;20570;-75
2023/08/12 04:48:12;;;;;;;6.97;6.00;;;;;;;19.21;100.00;101481.44;5035723;28;20029;-75
2023/08/12 04:50:38;;;;;;;8.57;6.15;;;;;;;19.21;100.00;101479.66;5035160;28;20088;-75
2023/08/12 04:53:06;;;;;;;8.52;6.38;;;;;;;19.22;100.00;101468.06;5035920;28;20052;-75
2023/08/12 04:55:31;;;;;;;7.22;6.30;;;;;;;19.21;100.00;101466.38;5035482;28;20331;-75
2023/08/12 04:57:57;;;;;;;8.32;6.72;;;;;;;19.21;100.00;101463.75;5035599;28;20030;-75
2023/08/12 05:00:22;;;;;;;7.30;6.70;;;;;;;19.21;100.00;101461.09;5035183;28;20088;-75
2023/08/12 05:02:48;;;;;;;7.50;6.60;;;;;;;19.21;100.00;101460.22;5035354;28;20107;-75
2023/08/12 05:05:13;;;;;;;9.38;7.30;;;;;;;19.21;100.00;101463.75;5035280;28;20084;-75
2023/08/12 05:07:39;;;;;;;7.85;6.65;;;;;;;19.22;100.00;101472.53;5034780;28;20076;-75
2023/08/12 05:10:05;;;;;;;7.10;6.45;;;;;;;19.21;100.00;101471.69;5035422;28;20037;-75
2023/08/12 05:12:30;;;;;;;8.10;6.55;;;;;;;19.22;100.00;101476.03;5035283;28;20064;-75
2023/08/12 05:14:56;;;;;;;7.63;6.90;;;;;;;19.22;100.00;101481.34;5035251;28;20220;-75
2023/08/12 05:17:21;;;;;;;12.50;8.98;;;;;;;19.21;100.00;101471.69;5034937;28;20049;-75
2023/08/12 05:19:47;;;;;;;16.80;7.20;;;;;;;19.21;100.00;101477.00;5035159;28;20033;-75
2023/08/12 05:22:12;;;;;;;11.25;7.53;;;;;;;19.22;100.00;101480.50;5035203;28;20044;-75
2023/08/12 05:24:37;;;;;;;17.88;8.73;;;;;;;19.21;100.00;101478.78;5034462;28;20029;-75
2023/08/12 05:27:04;;;;;;;9.57;8.48;;;;;;;19.21;100.00;101474.34;5035307;28;20036;-75
2023/08/12 05:29:30;;;;;;;10.93;8.25;;;;;;;19.20;100.00;101475.28;5034010;28;20324;-75
2023/08/12 05:31:55;;;;;;;8.10;7.30;;;;;;;19.21;100.00;101473.47;5034494;28;20062;-75
2023/08/12 05:34:20;;;;;;;8.82;7.95;;;;;;;19.21;100.00;101474.34;5034186;28;20037;-75
2023/08/12 05:36:46;;;;;;;7.93;7.13;;;;;;;19.21;100.00;101476.13;5035098;28;20037;-76
2023/08/12 05:39:11;;;;;;;9.07;8.18;;;;;;;19.21;100.00;101477.00;5034922;28;20037;-76
2023/08/12 05:41:36;;;;;;;19.13;11.10;;;;;;;19.22;100.00;101483.16;5034094;28;20037;-76
2023/08/12 05:44:02;;;;;;;10.38;8.18;;;;;;;19.22;100.00;101477.84;5034841;28;20036;-76
2023/08/12 05:46:27;;;;;;;11.85;7.53;;;;;;;19.21;100.00;101470.84;5034280;28;20291;-76
2023/08/12 05:48:53;;;;;;;6.72;6.13;;;;;;;19.20;100.00;101459.38;5035072;28;20056;-76
2023/08/12 05:51:18;;;;;;;8.02;6.75;;;;;;;19.21;100.00;101462.88;5034084;28;20025;-76
2023/08/12 05:53:43;;;;;;;6.78;6.05;;;;;;;19.20;100.00;101463.84;5034592;28;20099;-76
2023/08/12 05:56:09;;;;;;;6.15;5.57;;;;;;;19.20;100.00;101458.53;5034667;28;20056;-76
2023/08/12 05:58:34;;;;;;;8.38;5.88;;;;;;;19.20;100.00;101464.69;5033969;28;20086;-76
2023/08/12 06:01:00;;;;;;;5.85;5.35;;;;;;;19.21;100.00;101460.22;5034740;28;20219;-76
2023/08/12 06:03:25;;;;;;;6.25;5.63;;;;;;;19.21;100.00;101454.91;5033990;28;20045;-76
2023/08/12 06:05:50;;;;;;;6.35;5.75;;;;;;;19.20;100.00;101454.06;5034283;28;20028;-76
2023/08/12 06:08:16;;;;;;;5.28;4.85;;;;;;;19.21;100.00;101461.09;5034304;28;20072;-76
2023/08/12 06:10:41;;;;;;;5.30;4.63;;;;;;;19.22;100.00;101468.06;5034251;28;20323;-76
2023/08/12 06:13:07;;;;;;;4.72;3.70;;;;;;;19.21;100.00;101470.84;5034243;28;20068;-76
2023/08/12 06:15:36;;;;;;;4.15;3.80;;;;;;;19.21;100.00;101469.03;5033851;28;20051;-76
2023/08/12 06:18:02;;;;;;;5.22;3.72;;;;;;;19.22;100.00;101464.56;5034477;28;20293;-76
2023/08/12 06:20:27;;;;;;;3.53;3.22;;;;;;;19.21;100.00;101466.38;5033713;28;20038;-76
2023/08/12 06:22:53;;;;;;;5.10;2.97;;;;;;;19.21;100.00;101462.88;5034026;28;20075;-76
2023/08/12 06:25:19;;;;;;;2.58;2.38;;;;;;;19.22;100.00;101468.06;5033990;28;20048;-76
2023/08/12 06:27:45;;;;;;;2.72;2.53;;;;;;;19.22;100.00;101461.94;5034204;28;20202;-76
2023/08/12 06:30:12;;;;;;;2.88;2.28;;;;;;;19.21;100.00;101461.09;5033909;28;20036;-76
2023/08/12 06:32:38;;;;;;;2.40;2.20;;;;;;;19.21;100.00;101458.44;5034242;28;20041;-76
2023/08/12 06:35:03;;;;;;;2.70;2.00;;;;;;;19.21;100.00;101450.47;5034272;28;20083;-76
2023/08/12 06:37:29;;;;;;;2.35;2.10;;;;;;;19.22;100.00;101451.31;5033944;28;20041;-76
2023/08/12 06:39:55;;;;;;;2.00;1.90;;;;;;;19.20;100.00;101451.41;5016178;28;20348;-76
2023/08/12 06:42:20;;;;;;;1.98;1.88;;;;;;;19.20;100.00;101451.41;5036241;28;20025;-76
2023/08/12 06:44:46;;;;;;;1.80;1.65;;;;;;;19.20;100.00;101454.06;5038104;28;20037;-76
2023/08/12 06:47:11;;;;;;;2.22;2.03;;;;;;;19.20;100.00;101459.38;5038471;28;20091;-76
2023/08/12 06:49:37;;;;;;;2.10;2.00;;;;;;;19.20;100.00;101463.84;5037684;28;20096;-76
2023/08/12 06:52:02;;;;;;;2.53;1.70;;;;;;;19.20;100.00;101455.88;5020295;28;20044;-76
2023/08/12 06:54:28;;;;;;;2.55;1.88;;;;;;;19.21;100.00;101460.22;5037732;28;20037;-76
2023/08/12 06:56:53;;;;;;;3.22;1.77;;;;;;;19.18;100.00;101455.97;5038468;28;20432;-76
2023/08/12 06:59:18;;;;;;;2.42;1.70;;;;;;;19.18;100.00;101458.63;5037063;28;20045;-76
2023/08/12 07:01:44;;;;;;;1.40;1.30;;;;;;;19.18;100.00;101461.28;5038432;28;20069;-76
2023/08/12 07:04:09;;;;;;;1.90;1.80;;;;;;;19.18;100.00;101462.13;5038240;28;20033;-76
2023/08/12 07:06:35;;;;;;;1.80;1.70;;;;;;;19.18;100.00;101462.13;5037057;28;20216;-76
2023/08/12 07:09:00;;;;;;;1.50;1.40;;;;;;;19.18;100.00;101466.59;5037949;28;20037;-76
2023/08/12 07:11:25;;;;;;;2.47;1.75;;;;;;;19.17;100.00;101480.81;5036963;28;20040;-76
2023/08/12 07:13:51;;;;;;;1.60;1.50;;;;;;;19.15;100.00;101498.66;5037435;28;20342;-76
2023/08/12 07:16:16;;;;;;;2.28;1.38;;;;;;;19.13;100.00;101505.88;5037202;28;20037;-76
2023/08/12 07:18:42;;;;;;;1.73;1.30;;;;;;;19.07;100.00;101509.78;5037032;28;20037;-76
2023/08/12 07:21:07;;;;;;;2.03;1.40;;;;;;;19.02;100.00;101498.59;5037594;28;20043;-76
2023/08/12 07:23:32;;;;;;;3.30;1.33;;;;;;;18.96;100.00;101502.53;5037190;28;20123;-76
2023/08/12 07:25:58;;;;;;;4.07;1.17;;;;;;;18.92;100.00;101508.13;5037307;28;20041;-76
2023/08/12 07:28:23;;;;;;;7.18;1.38;;;;;;;18.85;100.00;101497.06;5036614;28;20044;-76
2023/08/12 07:30:49;;;;;;;5.05;1.27;;;;;;;18.81;100.00;101495.56;5037061;28;20033;-76
2023/08/12 07:33:15;;;;;;;8.82;1.90;;;;;;;18.75;100.00;101487.97;5037425;28;20033;-76
2023/08/12 07:35:40;;;;;;;4.47;1.20;;;;;;;18.72;100.00;101490.81;5036446;28;20084;-76
2023/08/12 07:38:06;;;;;;;3.83;1.20;;;;;;;18.66;100.00;101476.13;5037110;28;20116;-76
2023/08/12 07:40:31;;;;;;;4.60;1.50;;;;;;;18.61;100.00;101476.44;5036526;28;20370;-76
2023/08/12 07:42:57;;;;;;;3.55;1.30;;;;;;;18.59;100.00;101496.03;5037277;28;20088;-76
2023/08/12 07:45:23;;;;;;;3.20;1.30;;;;;;;18.55;100.00;101498.03;5036704;28;20056;-76
2023/08/12 07:47:51;;;;;;;3.35;1.38;;;;;;;18.54;100.00;101508.78;5037134;28;20336;-76
2023/08/12 07:50:17;;;;;;;;;;;;;;;18.50;100.00;101513.41;5037483;28;20100;-76
2023/08/12 07:52:42;;;;;;;2.47;1.20;;;;;;;18.48;100.00;101515.31;5036075;28;19913;-76
2023/08/12 07:55:08;;;;;;;3.00;1.23;;;;;;;18.46;100.00;101517.19;5036738;28;20088;-76
2023/08/12 07:57:33;;;;;;;6.30;1.23;;;;;;;18.43;100.00;101512.09;5036479;28;20044;-76
2023/08/12 07:59:59;;;;;;;3.80;1.20;;;;;;;18.40;100.00;101526.41;5036529;28;20232;-76
2023/08/12 08:02:24;;;;;;;3.35;1.40;;;;;;;18.38;100.00;101517.69;5036194;28;20045;-76
2023/08/12 08:04:49;;;;;;;2.92;1.38;;;;;;;18.37;100.00;101520.44;5036670;28;20304;-76
2023/08/12 08:07:16;;;;;;;3.38;1.35;;;;;;;18.35;100.00;101509.91;5036446;28;20064;-76
2023/08/12 08:09:42;;;;;;;5.60;1.33;;;;;;;18.33;100.00;101514.47;5036373;28;20430;-76
2023/08/12 08:12:09;;;;;;;2.55;1.65;;;;;;;18.32;100.00;101511.91;5036632;28;20036;-76
2023/08/12 08:14:34;;;;;;;4.80;1.13;;;;;;;18.31;100.00;101487.19;5035866;28;20033;-76
2023/08/12 08:17:00;;;;;;;1.70;1.13;;;;;;;18.30;100.00;101505.84;5018753;28;20032;-76
2023/08/12 08:19:25;;;;;;;4.03;1.40;;;;;;;18.29;100.00;101504.16;5035791;28;20037;-76
2023/08/12 08:21:50;;;;;;;4.20;1.88;;;;;;;18.29;100.00;101512.13;5036049;28;20075;-76
2023/08/12 08:24:16;;;;;;;2.28;1.45;;;;;;;18.28;100.00;101513.06;5036384;28;20280;-76
2023/08/12 08:26:41;;;;;;;2.17;1.30;;;;;;;18.28;100.00;101521.88;5036168;28;20214;-76
2023/08/12 08:29:07;;;;;;;4.30;1.85;;;;;;;18.28;100.00;101516.56;5036517;28;20033;-76
2023/08/12 08:31:32;;;;;;;2.78;1.63;;;;;;;18.28;100.00;101521.00;5035822;28;20044;-76
2023/08/12 08:33:58;;;;;;;2.88;2.10;;;;;;;18.28;100.00;101518.34;5036375;28;20320;-76
2023/08/12 08:36:24;;;;;;;5.68;1.75;;;;;;;18.28;100.00;101515.72;5035282;28;20091;-76
2023/08/12 08:38:50;;;;;;;3.75;2.13;;;;;;;18.30;100.00;101503.19;5035956;28;20038;-76
2023/08/12 08:41:16;;;;;;;4.28;2.17;;;;;;;18.31;100.00;101504.91;5035601;28;20096;-76
2023/08/12 08:43:46;;;;;;;4.78;2.00;;;;;;;18.31;100.00;101502.25;5035697;28;20047;-76
2023/08/12 08:46:15;;;;;;;4.50;1.60;;;;;;;18.31;100.00;101497.81;5035830;28;20029;-76
2023/08/12 08:48:41;;;;;;;3.03;1.60;;;;;;;18.33;100.00;101509.16;5035234;28;20095;-76
2023/08/12 08:51:09;;;;;;;4.68;1.85;;;;;;;18.34;100.00;101502.09;5035986;28;20048;-76
2023/08/12 08:53:37;;;;;;;1.88;1.02;;;;;;;18.36;100.00;101497.53;5017232;28;20025;-76
2023/08/12 08:56:05;;;;;;;2.70;1.60;;;;;;;18.38;100.00;101499.13;5035890;28;20041;-76
2023/08/12 08:58:31;;;;;;;3.27;1.40;;;;;;;18.39;100.00;101499.97;5035055;28;20323;-76
2023/08/12 09:00:56;;;;;;;3.00;1.40;;;;;;;18.42;100.00;101507.75;5035571;28;20228;-76
2023/08/12 09:03:22;;;;;;;3.58;1.52;;;;;;;18.44;100.00;101500.53;5016903;28;20412;-76
2023/08/12 09:05:48;;;;;;;3.45;1.48;;;;;;;18.46;100.00;101505.75;5017312;28;20336;-76
2023/08/12 09:08:14;;;;;;;7.65;1.90;;;;;;;18.47;100.00;101503.00;5035179;28;20058;-76
2023/08/12 09:10:41;;;;;;;4.43;1.80;;;;;;;18.47;100.00;101503.00;5034769;28;20042;-76
2023/08/12 09:13:08;;;;;;;5.28;2.13;;;;;;;18.51;100.00;101524.88;5035681;28;20446;-76
2023/08/12 09:15:34;;;;;;;3.67;1.52;;;;;;;18.52;100.00;101519.47;5034605;28;20075;-76
2023/08/12 09:17:59;;;;;;;7.93;1.80;;;;;;;18.54;100.00;101525.53;5035379;28;20373;-76
2023/08/12 09:20:24;;;;;;;4.20;1.67;;;;;;;18.57;100.00;101529.78;5034838;28;20034;-76
2023/08/12 09:22:58;;;;;;;7.55;1.98;;;;;;;18.59;100.00;101528.75;5035035;28;20316;-76
2023/08/12 09:25:23;;;;;;;3.63;1.42;;;;;;;18.60;100.00;101545.50;5016968;28;20096;-76
2023/08/12 09:27:49;;;;;;;4.85;1.58;;;;;;;18.60;100.00;101550.81;5035267;28;20060;-76
2023/08/12 09:30:14;;;;;;;2.95;1.40;;;;;;;18.61;100.00;101553.38;5035035;28;20059;-76
2023/08/12 09:32:40;;;;;;;5.90;1.65;;;;;;;18.63;100.00;101549.75;5034645;28;20087;-76
2023/08/12 09:35:06;;;;;;;2.65;1.85;;;;;;;18.62;100.00;101554.22;5034948;28;20037;-76
2023/08/12 09:37:32;;;;;;;5.50;1.77;;;;;;;18.62;100.00;101556.88;5034306;28;20037;-76
2023/08/12 09:39:58;;;;;;;6.03;1.30;;;;;;;18.61;100.00;101553.38;5034953;28;20144;-76
2023/08/12 09:42:23;;;;;;;4.80;1.52;;;;;;;18.63;100.00;101553.28;5034386;28;20094;-76
2023/08/12 09:44:49;;;;;;;3.95;1.67;;;;;;;18.63;100.00;101561.25;5034755;28;20335;-76
2023/08/12 09:47:14;;;;;;;3.83;1.48;;;;;;;18.62;100.00;101564.81;5035190;28;20450;-76
2023/08/12 09:49:40;;;;;;;5.85;1.85;;;;;;;18.61;100.00;101560.50;5034095;28;20332;-76
2023/08/12 09:52:07;;;;;;;5.82;1.70;;;;;;;18.58;100.00;101564.16;5034821;28;20029;-76
2023/08/12 09:54:32;;;;;;;3.75;1.48;;;;;;;18.58;100.00;101564.16;5033930;28;20459;-76
2023/08/12 09:56:59;;;;;;;8.85;1.70;;;;;;;18.56;100.00;101555.47;5034828;28;20219;-76
2023/08/12 09:59:31;;;;;;;3.33;1.40;;;;;;;18.56;100.00;101558.13;5033899;28;20273;-76
2023/08/12 10:01:57;;;;;;;9.27;2.40;;;;;;;18.57;100.00;101561.59;5034548;28;20124;-76
2023/08/12 10:04:26;;;;;;;5.60;1.30;;;;;;;18.58;100.00;101561.53;5034190;28;20090;-76
2023/08/12 10:06:52;;;;;;;7.97;1.92;;;;;;;18.59;100.00;101565.88;5034335;28;20062;-76
2023/08/12 10:09:18;;;;;;;4.78;1.70;;;;;;;18.60;100.00;101562.28;5033682;28;20034;-76
2023/08/12 10:11:45;;;;;;;6.00;2.05;;;;;;;18.63;100.00;101561.25;5034228;28;20101;-76
2023/08/12 10:14:12;;;;;;;4.95;1.58;;;;;;;18.65;100.00;101563.81;5034233;28;20253;-76
2023/08/12 10:16:37;;;;;;;8.15;2.33;;;;;;;18.65;100.00;101564.66;5033137;28;20716;-76
2023/08/12 10:19:05;;;;;;;5.43;2.03;;;;;;;18.66;100.00;101571.63;5034020;28;20052;-76
2023/08/12 10:21:30;;;;;;;6.15;1.88;;;;;;;18.67;100.00;101557.44;5033521;28;20377;-75
2023/08/12 10:23:58;;;;;;;4.05;1.80;;;;;;;18.70;100.00;101567.00;5034354;28;20105;-76
2023/08/12 10:26:24;;;;;;;11.07;2.13;;;;;;;18.70;100.00;101567.88;5033887;28;20132;-76
2023/08/12 10:28:50;;;;;;;3.72;2.05;;;;;;;18.73;100.00;101561.50;5034041;28;20069;-76
2023/08/12 10:31:16;;;;;;;3.22;1.60;;;;;;;18.74;100.00;101566.72;5034182;28;20268;-76
2023/08/12 10:33:42;;;;;;;7.10;2.20;;;;;;;18.76;100.00;101562.16;5034005;28;20087;-76
2023/08/12 10:36:09;;;;;;;6.90;2.05;;;;;;;18.77;100.00;101561.22;5033857;28;20229;-76
2023/08/12 10:38:34;;;;;;;10.65;2.15;;;;;;;18.79;100.00;101555.78;5033601;28;20029;-76
2023/08/12 10:41:15;;;;;;;6.80;2.33;;;;;;;18.82;100.00;101558.28;5034319;28;20040;-76
2023/08/12 10:43:54;;;;;;;5.05;1.90;;;;;;;18.83;100.00;101546.75;5033030;28;20129;-76
2023/08/12 10:46:36;;;;;;;9.02;2.15;;;;;;;18.84;100.00;101550.22;5033405;28;20270;-76
2023/08/12 10:49:10;;;;;;;4.63;2.05;;;;;;;18.86;100.00;101549.16;5034065;28;20036;-76
2023/08/12 10:51:49;;;;;;;7.10;2.13;;;;;;;18.88;100.00;101555.25;5033761;28;20099;-76
2023/08/12 10:54:30;;;;;;;5.10;2.20;;;;;;;18.90;100.00;101560.44;5033816;28;20087;-75
2023/08/12 10:57:05;;;;;;;8.32;2.63;;;;;;;18.91;100.00;101546.22;5034342;28;20083;-76
2023/08/12 10:59:45;;;;;;;3.35;2.00;;;;;;;18.93;100.00;101546.97;5033052;28;20072;-76
2023/08/12 11:02:27;;;;;;;6.72;2.25;;;;;;;18.95;100.00;101548.56;5034113;28;20112;-76
2023/08/12 11:05:04;;;;;;;5.60;2.05;;;;;;;18.96;100.00;101544.13;5033755;28;20041;-76
2023/08/12 11:07:43;;;;;;;11.70;2.22;;;;;;;18.96;100.00;101539.69;5033059;28;20053;-76
2023/08/12 11:10:16;;;;;;;6.10;2.35;;;;;;;18.98;100.00;101537.78;5033723;28;20025;-76
2023/08/12 11:12:49;;;;;;;9.68;2.50;;;;;;;19.01;100.00;101546.47;5033321;28;20038;-76
2023/08/12 11:15:14;;;;;;;8.30;2.10;;;;;;;19.02;100.00;101543.72;5033882;28;20045;-76